createdAt,value
2022-08-22T00:02:47.030Z,-9054.47
2022-08-22T00:02:58.023Z,-15260.56
2022-08-22T00:04:24.812Z,-15262.09
2022-08-22T00:09:36.333Z,-15262.09
2022-08-22T00:14:47.519Z,-15262.09
2022-08-22T00:19:56.259Z,-15262.09
2022-08-22T00:25:24.880Z,-15262.09
2022-08-22T00:30:35.961Z,-15262.09
2022-08-22T00:35:45.140Z,-15262.09
2022-08-22T00:41:01.068Z,-15262.09
2022-08-22T00:46:54.508Z,-15262.09
2022-08-22T00:52:36.558Z,-15262.09
2022-08-22T00:57:55.775Z,-15262.09
2022-08-22T01:03:26.746Z,-15262.09
2022-08-22T01:08:47.858Z,-15262.09
2022-08-22T01:14:08.854Z,-15262.09
2022-08-22T01:19:45.691Z,-15262.09
2022-08-22T01:25:26.103Z,-15262.09
2022-08-22T01:31:15.336Z,-15262.09
2022-08-22T01:37:01.708Z,-15262.09
2022-08-22T01:42:43.762Z,-15262.09
2022-08-22T01:47:54.508Z,-15262.09
2022-08-22T01:53:09.787Z,-15262.09
2022-08-22T01:58:19.576Z,-15262.09
2022-08-22T02:03:29.282Z,-15262.09
2022-08-22T02:08:45.396Z,-15262.09
2022-08-22T02:13:59.434Z,-15262.09
2022-08-22T02:19:26.723Z,-15262.09
2022-08-22T02:24:49.123Z,-15262.09
2022-08-22T02:30:08.477Z,-15262.09
2022-08-22T02:35:23.458Z,-15262.09
2022-08-22T02:40:35.432Z,-15262.09
2022-08-22T02:45:42.860Z,-15262.09
2022-08-22T02:50:54.850Z,-15262.09
2022-08-22T02:56:06.254Z,-15262.09
2022-08-22T03:01:25.352Z,-15262.09
2022-08-22T03:06:37.826Z,-15262.09
2022-08-22T03:11:47.908Z,-15262.09
2022-08-22T03:17:03.291Z,-15262.09
2022-08-22T03:22:12.781Z,-15262.09
2022-08-22T03:27:27.813Z,-15262.09
2022-08-22T03:32:52.040Z,-15262.09
2022-08-22T03:38:09.055Z,-15262.09
2022-08-22T03:43:32.228Z,-15262.09
2022-08-22T03:48:57.024Z,-15262.09
2022-08-22T03:54:41.416Z,-15262.09
2022-08-22T04:00:04.359Z,-15262.09
2022-08-22T04:05:47.880Z,-15262.09
2022-08-22T04:11:21.541Z,-15262.09
2022-08-22T04:17:06.309Z,-15262.09
2022-08-22T04:22:23.980Z,-15262.09
2022-08-22T04:27:33.985Z,-15262.09
2022-08-22T04:32:45.911Z,-15262.09
2022-08-22T04:37:54.564Z,-15262.09
2022-08-22T04:43:03.631Z,-15262.09
2022-08-22T04:48:14.096Z,-15262.09
2022-08-22T04:53:29.988Z,-15262.09
2022-08-22T04:58:43.040Z,-15262.09
2022-08-22T05:03:57.777Z,-15262.09
2022-08-22T05:09:05.651Z,-15262.09
2022-08-22T05:14:19.326Z,-15262.09
2022-08-22T05:19:32.427Z,-15262.09
2022-08-22T05:24:40.165Z,-15262.09
2022-08-22T05:29:48.056Z,-15262.09
2022-08-22T05:34:59.125Z,-15262.09
2022-08-22T05:40:02.893Z,-15262.09
2022-08-22T05:45:12.234Z,-15262.09
2022-08-22T05:50:21.272Z,-15262.09
2022-08-22T05:55:29.406Z,-15262.09
2022-08-22T06:00:40.258Z,-15262.09
2022-08-22T06:05:52.684Z,-15262.09
2022-08-22T06:10:59.283Z,-15262.09
2022-08-22T06:16:11.740Z,-15262.09
2022-08-22T06:21:22.108Z,-15262.09
2022-08-22T06:26:29.255Z,-15262.09
2022-08-22T06:31:37.160Z,-15262.09
2022-08-22T06:36:45.961Z,-15262.09
2022-08-22T06:41:53.801Z,-15262.09
2022-08-22T06:47:01.010Z,-15262.09
2022-08-22T06:52:09.104Z,-15262.09
2022-08-22T06:57:27.091Z,-15262.09
2022-08-22T07:02:37.606Z,-15262.09
2022-08-22T07:07:42.610Z,-15262.09
2022-08-22T07:12:49.690Z,-15262.09
2022-08-22T07:18:00.533Z,-15262.09
2022-08-22T07:23:10.037Z,-15262.09
2022-08-22T07:28:31.762Z,-15262.09
2022-08-22T07:33:45.227Z,-15262.09
2022-08-22T07:39:04.216Z,-15262.09
2022-08-22T07:44:17.502Z,-15262.09
2022-08-22T07:49:25.762Z,-15262.09
2022-08-22T07:54:38.250Z,-15262.09
2022-08-22T07:59:54.835Z,-15262.09
2022-08-22T08:05:01.673Z,-15262.09
2022-08-22T08:10:13.359Z,-15262.09
2022-08-22T08:15:21.614Z,-15262.09
2022-08-22T08:20:28.514Z,-14226.91
2022-08-22T08:25:39.244Z,-11900.19
2022-08-22T08:30:46.960Z,-1801.28
2022-08-22T08:36:02.735Z,1051.94
2022-08-22T08:41:50.628Z,1830.47
2022-08-22T08:47:15.228Z,3387.97
2022-08-22T08:52:44.702Z,1830.47
2022-08-22T09:04:15.234Z,1051.94
2022-08-22T09:09:34.712Z,3387.97
2022-08-22T09:15:03.874Z,2609.13
2022-08-22T09:20:50.392Z,2868.72
2022-08-22T09:26:01.057Z,273.59
2022-08-22T09:31:47.668Z,-245.22
2022-08-22T09:37:16.392Z,-763.97
2022-08-22T09:40:15.241Z,1570.94
2022-08-22T09:42:25.402Z,1051.94
2022-08-22T09:47:35.619Z,2868.72
2022-08-22T09:52:53.618Z,5985.19
2022-08-22T09:58:04.792Z,4946.09
2022-08-22T10:03:18.507Z,9884.31
2022-08-22T10:08:34.743Z,7804.31
2022-08-22T10:13:56.600Z,29071.34
2022-08-22T10:19:16.793Z,23170.75
2022-08-22T10:24:44.111Z,37325.06
2022-08-22T10:30:01.892Z,43995.06
2022-08-22T10:35:18.191Z,47294.31
2022-08-22T10:40:27.872Z,49212.78
2022-08-22T10:45:36.652Z,50048.19
2022-08-22T10:50:46.696Z,49812.13
2022-08-22T10:55:55.205Z,50267.84
2022-08-22T11:01:41.570Z,49994.81
2022-08-22T11:06:32.201Z,50473.13
2022-08-22T11:11:43.465Z,51050.06
2022-08-22T11:16:59.018Z,51520.31
2022-08-22T11:22:22.524Z,51366.28
2022-08-22T11:27:38.334Z,51637.38
2022-08-22T11:33:05.472Z,51645.56
2022-08-22T11:38:26.939Z,51918.72
2022-08-22T11:43:48.716Z,52202.16
2022-08-22T11:49:09.202Z,52124.09
2022-08-22T11:54:21.300Z,52048.09
2022-08-22T11:59:43.032Z,52274.03
2022-08-22T12:04:53.151Z,52189.81
2022-08-22T12:10:00.728Z,52296.63
2022-08-22T12:15:12.099Z,52352.09
2022-08-22T12:20:33.226Z,52417.81
2022-08-22T12:25:55.018Z,52333.59
2022-08-22T12:31:10.218Z,52415.75
2022-08-22T12:36:34.041Z,52483.53
2022-08-22T12:42:07.198Z,52541.06
2022-08-22T12:47:31.912Z,52491.75
2022-08-22T12:52:55.557Z,52518.47
2022-08-22T12:58:09.833Z,52518.47
2022-08-22T13:03:24.402Z,52553.38
2022-08-22T13:08:32.193Z,52553.38
2022-08-22T13:13:40.513Z,52522.56
2022-08-22T13:18:53.554Z,52553.38
2022-08-22T13:24:01.124Z,52541.06
2022-08-22T13:29:25.142Z,52561.59
2022-08-22T13:34:40.238Z,52559.53
2022-08-22T13:39:48.908Z,52520.50
2022-08-22T13:44:56.472Z,52588.28
2022-08-22T13:50:11.259Z,52571.88
2022-08-22T13:55:19.660Z,52606.78
2022-08-22T14:01:10.673Z,52594.47
2022-08-22T14:06:37.666Z,52608.84
2022-08-22T14:11:47.410Z,52569.81
2022-08-22T14:16:55.148Z,52635.53
2022-08-22T14:22:02.050Z,52649.91
2022-08-22T14:27:09.261Z,52619.09
2022-08-22T14:32:36.483Z,52604.72
2022-08-22T14:37:49.996Z,52573.91
2022-08-22T14:42:57.575Z,52590.34
2022-08-22T14:48:29.286Z,52569.81
2022-08-22T14:53:37.510Z,52588.28
2022-08-22T14:58:51.188Z,52578.03
2022-08-22T15:04:02.857Z,52573.91
2022-08-22T15:09:23.660Z,52586.25
2022-08-22T15:14:45.564Z,52575.97
2022-08-22T15:20:12.033Z,52645.81
2022-08-22T15:25:19.015Z,52635.53
2022-08-22T15:30:44.123Z,52631.44
2022-08-22T15:35:51.174Z,52590.34
2022-08-22T15:40:57.125Z,52557.50
2022-08-22T15:46:25.898Z,52573.91
2022-08-22T15:51:38.654Z,52510.25
2022-08-22T15:56:45.986Z,52557.50
2022-08-22T16:01:53.469Z,52594.47
2022-08-22T16:07:01.357Z,52617.06
2022-08-22T16:12:08.738Z,52635.53
2022-08-22T16:17:42.177Z,52608.84
2022-08-22T16:23:08.870Z,52612.94
2022-08-22T16:28:41.487Z,52610.91
2022-08-22T16:33:47.937Z,52602.69
2022-08-22T16:38:56.596Z,52602.69
2022-08-22T16:44:40.217Z,52545.16
2022-08-22T16:50:02.290Z,52565.69
2022-08-22T16:55:46.036Z,52565.69
2022-08-22T17:00:58.097Z,52586.25
2022-08-22T17:06:32.146Z,52586.25
2022-08-22T17:11:44.781Z,52575.97
2022-08-22T17:17:15.157Z,52551.31
2022-08-22T17:22:29.264Z,52575.97
2022-08-22T17:27:37.946Z,52557.50
2022-08-22T17:33:15.067Z,52573.91
2022-08-22T17:38:33.193Z,52547.22
2022-08-22T17:43:53.230Z,52553.38
2022-08-22T17:49:10.313Z,52520.50
2022-08-22T17:54:21.655Z,52520.50
2022-08-22T17:59:30.257Z,52491.75
2022-08-22T18:04:46.861Z,52532.84
2022-08-22T18:09:58.559Z,52446.56
2022-08-22T18:15:10.199Z,52432.19
2022-08-22T18:20:23.059Z,52426.03
2022-08-22T18:25:40.832Z,52458.88
2022-08-22T18:30:57.484Z,52411.66
2022-08-22T18:36:09.021Z,52413.69
2022-08-22T18:41:23.185Z,52356.19
2022-08-22T18:46:52.056Z,52350.03
2022-08-22T18:52:23.348Z,52331.53
2022-08-22T18:57:42.655Z,52306.91
2022-08-22T19:03:22.158Z,52173.38
2022-08-22T19:08:53.595Z,52200.09
2022-08-22T19:14:16.082Z,52154.91
2022-08-22T19:19:24.852Z,51961.84
2022-08-22T19:25:08.976Z,51877.66
2022-08-22T19:30:42.064Z,51840.69
2022-08-22T19:36:02.522Z,51853.00
2022-08-22T19:41:06.137Z,51859.16
2022-08-22T19:46:14.977Z,51493.63
2022-08-22T19:51:29.431Z,51366.28
2022-08-22T19:56:44.659Z,51434.06
2022-08-22T20:01:58.971Z,51368.34
2022-08-22T20:07:14.649Z,51087.03
2022-08-22T20:12:25.644Z,50752.34
2022-08-22T20:17:43.712Z,50540.88
2022-08-22T20:22:53.154Z,50163.16
2022-08-22T20:28:03.536Z,50033.81
2022-08-22T20:33:12.867Z,49619.19
2022-08-22T20:38:21.440Z,49241.53
2022-08-22T20:43:32.232Z,47835.91
2022-08-22T20:48:42.119Z,47327.13
2022-08-22T20:53:52.832Z,46342.59
2022-08-22T20:59:00.932Z,45747.91
2022-08-22T21:04:06.497Z,45399.31
2022-08-22T21:09:35.868Z,44667.41
2022-08-22T21:14:46.046Z,44304.59
2022-08-22T21:19:51.275Z,41532.19
2022-08-22T21:24:56.695Z,42343.41
2022-08-22T21:30:03.008Z,43421.22
2022-08-22T21:35:23.408Z,43800.38
2022-08-22T21:40:33.342Z,44154.94
2022-08-22T21:45:44.169Z,42892.53
2022-08-22T21:50:48.918Z,39003.28
2022-08-22T21:56:11.162Z,34845.91
2022-08-22T22:01:29.995Z,39940.94
2022-08-22T22:06:34.869Z,42468.41
2022-08-22T22:11:39.155Z,42913.00
2022-08-22T22:16:43.050Z,42509.38
2022-08-22T22:21:47.864Z,44480.88
2022-08-22T22:26:51.506Z,43460.16
2022-08-22T22:31:55.134Z,42144.69
2022-08-22T22:37:00.099Z,41696.06
2022-08-22T22:42:04.096Z,35107.66
2022-08-22T22:47:07.818Z,38978.72
2022-08-22T22:52:12.686Z,40757.97
2022-08-22T22:57:25.329Z,38452.66
2022-08-22T23:02:29.190Z,34539.19
2022-08-22T23:07:34.433Z,31751.19
2022-08-22T23:12:38.691Z,30901.28
2022-08-22T23:17:42.673Z,24997.91
2022-08-22T23:22:47.905Z,22648.84
2022-08-22T23:27:52.495Z,21344.44
2022-08-22T23:33:02.544Z,15349.69
2022-08-22T23:38:07.406Z,11965.47
2022-08-22T23:43:10.884Z,8844.16
2022-08-22T23:48:14.392Z,5725.41
2022-08-22T23:53:19.285Z,3387.97
2022-08-22T23:58:23.414Z,2868.72
